Aurora, IL

12:58 AM CDT on September 30, 2014 (GMT -0500)
Brookdale Lakes | Change Station
CLOSE
Current Station
Personal Weather Station
Location: Naperville, IL
Elevation: 749 ft
Nearby Weather Stations

Elev 749 ft 41.78 °N, 88.20 °W | Updated 2 seconds ago

Overcast
Overcast
54.6 °F
Feels Like 54.6 °F
N
2.0
Wind Variable Wind from East
Gusts 2.0 mph

Today
High -- | Low -- °F
--% Chance of Precip.
Yesterday
High -- | Low -- °F
Precip. -- in
6:48 AM 6:36 PM
Waxing Crescent, 33% visible
Pressure 30.01 in
Visibility 10.0 miles
Clouds Overcast 900 ft
Dew Point 51 °F
Humidity 89%
Rainfall 0.00 in
Snow Depth Not available.
UV 0 out of 12
Pollen 3.90 out of 12
Ozone Good
PM2.5 Good
Flu Activity Not available.
METAR KDPA 300552Z 05012KT 10SM OVC009 12/10 A3001 RMK AO2 SLP161 60000 T01220100 10206 20122 402940117 53002

More Conditions Fewer Conditions

Pressure 30.01 in
Visibility 10.0 miles
Clouds Overcast 900 ft
Dew Point 51 °F
Humidity 89%
Rainfall 0.00 in
Snow Depth Not available.
UV 0 out of 12
Pollen 3.90 out of 12
Ozone Good
PM2.5 Good
Flu Activity Not available.
METAR KDPA 300552Z 05012KT 10SM OVC009 12/10 A3001 RMK AO2 SLP161 60000 T01220100 10206 20122 402940117 53002

More Conditions Fewer Conditions

10-Day Weather Forecast

Almanac

Astronomy

Sep. 30, 2014 Rise Set
Actual Time 6:48 AM CDT 6:36 PM CDT
Civil Twilight 6:21 AM CDT 7:04 PM CDT
Nautical Twilight 5:48 AM CDT 7:36 PM CDT
Astronomical Twilight 5:16 AM CDT 8:08 PM CDT
Moon 1:00 PM CDT 11:02 PM CDT
Length of Visible Light 12h 42m
Length of Day
11h 47m
Tomorrow will be 2m 46s shorter.
Waxing Crescent, 33% of the Moon is Illuminated
Today
Waxing Crescent
Oct 1
First Quarter
Oct 8
Full
Oct 15
Last Quarter
Oct 23
New

Today's Extremes

State Highs State Lows

Community

WunderPhotos

Upload Photos

1,757,577 photos uploaded!

Nearby

Air Quality

  Air Quality AQ Index Pollutant
Yesterday Moderate
PM2.5
Yesterday Moderate
OZONE
Current Good
PM2.5
Current Good
OZONE
Monday Moderate
PM2.5
Tuesday Moderate
PM2.5
Wednesday Moderate
PM2.5
Thursday Moderate
PM2.5
Friday Good
PM2.5
Saturday Good
PM2.5

Snow Depth

Station Depth Elevation
No new snow has been reported.

Earthquake Activity

City Distance Mag. Time & Date
No recent earthquake activity has been reported nearby.
Minimum magnitude displayed is 2.5.

Coastal Water Temperatures

Place Temperature
No Stations Reporting

Nearby Weather Stations